Time;durP1;ratioP1;P1;durP2;ratioP2;P2;SDS_P1;SDS_P2;PMS_P1;PMS_P2;Temp;Humidity;BMP_temperature;BMP_pressure;BME280_temperature;BME280_humidity;BME280_pressure;Samples;Min_cycle;Max_cycle;Signal;HPM_P1;HPM_P2
2021/06/29 00:01:10;;;;;;;7.68;3.65;;;;;;;16.65;100.00;95818.38;5012888;28;20409;-76
2021/06/29 00:03:36;;;;;;;4.57;3.92;;;;;;;16.64;100.00;95811.47;5012978;28;20903;-76
2021/06/29 00:06:02;;;;;;;10.63;3.92;;;;;;;16.62;100.00;95821.25;5012161;28;20466;-76
2021/06/29 00:08:27;;;;;;;6.72;4.35;;;;;;;16.70;100.00;95810.13;5012346;28;20969;-76
2021/06/29 00:10:53;;;;;;;6.07;4.70;;;;;;;16.68;100.00;95818.09;4994568;28;20984;-76
2021/06/29 00:13:21;;;;;;;7.03;4.30;;;;;;;16.65;100.00;95813.13;5011893;28;20456;-77
2021/06/29 00:15:47;;;;;;;5.47;4.35;;;;;;;16.83;100.00;95809.91;5011526;28;20911;-77
2021/06/29 00:18:12;;;;;;;5.00;4.03;;;;;;;16.91;100.00;95791.78;4994418;28;20483;-76
2021/06/29 00:20:38;;;;;;;5.47;3.92;;;;;;;16.97;100.00;95788.59;5011853;28;20475;-77
2021/06/29 00:23:04;;;;;;;5.43;4.07;;;;;;;16.95;100.00;95780.06;5011621;28;20478;-76
2021/06/29 00:25:29;;;;;;;4.72;4.15;;;;;;;17.02;100.00;95781.19;4994079;28;20791;-76
2021/06/29 00:27:55;;;;;;;5.63;4.57;;;;;;;16.94;100.00;95791.47;5011725;28;20421;-77
2021/06/29 00:30:22;;;;;;;5.17;4.17;;;;;;;16.88;100.00;95792.03;4994096;28;20527;-76
2021/06/29 00:32:48;;;;;;;5.63;4.32;;;;;;;16.90;100.00;95780.44;4993943;28;20429;-76
2021/06/29 00:35:33;;;;;;;7.00;4.83;;;;;;;16.95;100.00;95771.41;5010595;28;20801;-76
2021/06/29 00:37:58;;;;;;;7.37;4.93;;;;;;;16.96;100.00;95763.41;5011636;28;20495;-76
2021/06/29 00:40:25;;;;;;;7.80;4.60;;;;;;;17.03;100.00;95748.81;4993949;28;20425;-76
2021/06/29 00:42:51;;;;;;;7.43;4.97;;;;;;;17.06;100.00;95743.31;5011460;28;20504;-76
2021/06/29 00:45:16;;;;;;;7.88;4.68;;;;;;;17.16;100.00;95740.69;5010380;28;20869;-76
2021/06/29 00:47:43;;;;;;;6.10;4.67;;;;;;;17.19;100.00;95745.66;5011446;28;20497;-76
2021/06/29 00:50:09;;;;;;;6.70;5.03;;;;;;;17.16;100.00;95731.03;5011364;28;20420;-76
2021/06/29 00:52:35;;;;;;;7.35;4.88;;;;;;;17.18;100.00;95708.19;5011348;28;20428;-76
2021/06/29 00:55:01;;;;;;;5.33;4.27;;;;;;;17.16;100.00;95702.25;5011133;28;20466;-76
2021/06/29 00:57:26;;;;;;;6.32;4.40;;;;;;;17.13;100.00;95693.84;5010974;28;20419;-76
2021/06/29 00:59:51;;;;;;;4.82;4.30;;;;;;;17.15;100.00;95690.16;4993518;28;20424;-76
2021/06/29 01:02:17;;;;;;;4.70;4.17;;;;;;;17.05;100.00;95691.94;4993564;28;20834;-76
2021/06/29 01:04:45;;;;;;;6.43;4.10;;;;;;;17.11;100.00;95672.25;5011065;28;20515;-76
2021/06/29 01:07:12;;;;;;;5.82;4.00;;;;;;;17.07;100.00;95658.63;5010752;28;20417;-76
2021/06/29 01:09:38;;;;;;;4.28;3.88;;;;;;;17.40;100.00;95641.63;5011161;28;20419;-76
2021/06/29 01:12:05;;;;;;;10.03;4.00;;;;;;;17.59;100.00;95646.00;5011084;28;20500;-77
2021/06/29 01:14:30;;;;;;;8.68;4.03;;;;;;;17.13;100.00;95673.78;4993075;28;20432;-76
2021/06/29 01:16:57;;;;;;;5.80;3.77;;;;;;;16.91;100.00;95687.13;4993074;28;20498;-76
2021/06/29 01:19:32;;;;;;;5.07;4.00;;;;;;;16.91;100.00;95668.81;5010991;28;20426;-76
2021/06/29 01:21:59;;;;;;;7.25;4.45;;;;;;;16.82;100.00;95675.69;5010956;28;20420;-76
2021/06/29 01:24:29;;;;;;;6.10;5.00;;;;;;;16.69;100.00;95662.84;4993143;28;20930;-76
2021/06/29 01:27:04;;;;;;;6.22;4.47;;;;;;;16.69;100.00;95667.25;4992959;28;20423;-76
2021/06/29 01:32:12;;;;;;;4.85;4.07;;;;;;;16.61;100.00;95674.94;5010939;28;20444;-76
2021/06/29 01:34:37;;;;;;;6.22;4.10;;;;;;;16.56;100.00;95677.97;5010755;28;20528;-76
2021/06/29 01:37:04;;;;;;;5.10;3.70;;;;;;;16.61;100.00;95678.41;5010472;28;20721;-76
2021/06/29 01:39:30;;;;;;;4.30;3.67;;;;;;;16.66;100.00;95691.06;5011135;28;20492;-76
2021/06/29 01:41:55;;;;;;;4.30;3.67;;;;;;;16.65;100.00;95697.25;5010745;28;20420;-76
2021/06/29 01:44:33;;;;;;;6.13;3.77;;;;;;;16.64;100.00;95721.72;5010806;28;20496;-76
2021/06/29 01:47:00;;;;;;;8.07;3.72;;;;;;;16.63;100.00;95744.44;4993101;28;20914;-76
2021/06/29 01:49:26;;;;;;;4.85;3.60;;;;;;;16.65;100.00;95732.06;5010795;28;20412;-76
2021/06/29 01:51:51;;;;;;;8.68;3.85;;;;;;;16.53;100.00;95733.13;5010635;28;20688;-76
2021/06/29 01:54:18;;;;;;;4.63;3.40;;;;;;;16.65;100.00;95741.72;5010539;28;20516;-76
2021/06/29 01:56:45;;;;;;;4.13;3.17;;;;;;;16.63;100.00;95741.00;4995574;28;20416;-77
2021/06/29 01:59:13;;;;;;;5.03;2.97;;;;;;;16.38;100.00;95739.69;5014474;28;20918;-76
2021/06/29 02:01:39;;;;;;;7.75;2.63;;;;;;;16.36;100.00;95746.84;5014484;28;20416;-76
2021/06/29 02:04:04;;;;;;;3.70;2.57;;;;;;;16.34;100.00;95740.91;5014361;28;20918;-76
2021/06/29 02:06:30;;;;;;;4.90;2.57;;;;;;;16.26;100.00;95738.16;4996514;28;20417;-76
2021/06/29 02:08:55;;;;;;;3.60;2.43;;;;;;;16.29;100.00;95728.25;5014239;28;20452;-76
2021/06/29 02:11:22;;;;;;;4.90;2.58;;;;;;;16.25;100.00;95731.28;5014314;28;20538;-76
2021/06/29 02:13:47;;;;;;;3.72;2.60;;;;;;;16.24;100.00;95724.38;4996566;28;20416;-76
2021/06/29 02:16:13;;;;;;;3.33;2.28;;;;;;;16.25;100.00;95724.25;4996176;28;20424;-76
2021/06/29 02:18:38;;;;;;;3.57;2.50;;;;;;;16.29;100.00;95723.03;5014160;28;20520;-76
2021/06/29 02:21:08;;;;;;;3.50;2.20;;;;;;;16.31;100.00;95726.31;5014095;28;20440;-76
2021/06/29 02:23:33;;;;;;;3.30;2.13;;;;;;;16.32;100.00;95732.41;4996888;28;20456;-76
2021/06/29 02:25:59;;;;;;;3.92;2.60;;;;;;;16.28;100.00;95736.22;5013810;28;20483;-76
2021/06/29 02:28:26;;;;;;;4.53;2.75;;;;;;;16.33;100.00;95744.50;5013987;28;20499;-76
2021/06/29 02:30:52;;;;;;;8.02;2.75;;;;;;;16.33;100.00;95741.88;5014016;28;20408;-76
2021/06/29 02:33:17;;;;;;;5.20;2.70;;;;;;;16.37;100.00;95740.66;5013941;28;20419;-76
2021/06/29 02:35:43;;;;;;;6.22;2.78;;;;;;;16.40;100.00;95748.25;5013593;28;20794;-77
2021/06/29 02:38:08;;;;;;;5.40;2.40;;;;;;;16.35;100.00;95746.03;5014409;28;20431;-77
2021/06/29 02:40:34;;;;;;;5.70;2.70;;;;;;;16.45;100.00;95744.25;4997068;28;20463;-77
2021/06/29 02:43:00;;;;;;;7.55;2.55;;;;;;;16.40;100.00;95751.69;4996983;28;20520;-77
2021/06/29 02:45:27;;;;;;;3.85;2.58;;;;;;;16.44;100.00;95749.63;5014747;28;20421;-77
2021/06/29 02:47:53;;;;;;;3.75;2.80;;;;;;;16.45;100.00;95753.88;5014890;28;20479;-77
2021/06/29 02:50:19;;;;;;;3.20;2.20;;;;;;;16.51;100.00;95737.69;5014498;28;20452;-77
2021/06/29 02:52:45;;;;;;;3.65;2.40;;;;;;;16.53;100.00;95734.91;5014062;28;21045;-77
2021/06/29 02:55:13;;;;;;;4.15;2.25;;;;;;;16.53;100.00;95733.13;4995766;28;20420;-77
2021/06/29 02:57:39;;;;;;;3.05;2.10;;;;;;;16.59;100.00;95739.63;4996266;28;20428;-76
2021/06/29 03:00:08;;;;;;;3.47;2.60;;;;;;;16.64;100.00;95740.88;5014535;28;20439;-77
2021/06/29 03:02:35;;;;;;;3.28;2.38;;;;;;;16.69;100.00;95762.22;5014706;28;20858;-77
2021/06/29 03:05:02;;;;;;;4.70;2.70;;;;;;;16.72;100.00;95770.75;5013524;28;20440;-77
2021/06/29 03:07:28;;;;;;;4.30;2.35;;;;;;;16.73;100.00;95747.09;5012614;28;20921;-77
2021/06/29 03:09:53;;;;;;;3.25;2.20;;;;;;;16.68;100.00;95742.25;5013312;28;20433;-77
2021/06/29 03:12:18;;;;;;;2.72;2.25;;;;;;;16.54;100.00;95753.09;5013171;28;20794;-77
2021/06/29 03:14:44;;;;;;;4.63;2.67;;;;;;;16.36;100.00;95758.13;5013068;28;20470;-76
2021/06/29 03:17:09;;;;;;;4.07;2.40;;;;;;;16.45;100.00;95756.50;5012832;28;20433;-76
2021/06/29 03:19:36;;;;;;;4.43;2.40;;;;;;;16.56;100.00;95734.66;4995481;28;20544;-77
2021/06/29 03:22:03;;;;;;;3.20;2.20;;;;;;;16.59;100.00;95734.41;5013014;28;20448;-77
2021/06/29 03:24:29;;;;;;;4.25;2.17;;;;;;;16.63;100.00;95736.59;5012876;28;20427;-77
2021/06/29 03:26:55;;;;;;;2.83;2.10;;;;;;;16.69;100.00;95724.78;5012686;28;20413;-77
2021/06/29 03:29:20;;;;;;;3.55;2.17;;;;;;;16.51;100.00;95719.38;5012888;28;20776;-76
2021/06/29 03:31:46;;;;;;;4.57;2.50;;;;;;;16.81;100.00;95709.84;4995331;28;20439;-77
2021/06/29 03:34:11;;;;;;;6.95;2.20;;;;;;;16.69;100.00;95707.31;4995147;28;20416;-77
2021/06/29 03:36:38;;;;;;;4.78;2.05;;;;;;;16.69;100.00;95703.88;5012487;28;20433;-77
2021/06/29 03:39:04;;;;;;;3.35;2.50;;;;;;;16.59;100.00;95698.63;4995293;28;20464;-76
2021/06/29 03:41:30;;;;;;;5.78;2.35;;;;;;;16.72;100.00;95695.72;5013494;28;20425;-77
2021/06/29 03:43:55;;;;;;;3.53;1.90;;;;;;;16.67;100.00;95700.56;5013599;28;20409;-76
2021/06/29 03:46:20;;;;;;;5.00;2.20;;;;;;;16.77;100.00;95685.75;4995671;28;20427;-76
2021/06/29 03:48:46;;;;;;;5.20;1.87;;;;;;;16.74;100.00;95682.56;4995225;28;20421;-76
2021/06/29 03:51:11;;;;;;;2.40;1.97;;;;;;;16.81;100.00;95678.44;5012562;28;20495;-77
2021/06/29 03:53:38;;;;;;;3.40;2.13;;;;;;;16.61;100.00;95682.78;4994914;28;20507;-76
2021/06/29 03:56:04;;;;;;;5.20;2.05;;;;;;;16.49;100.00;95681.25;4994968;28;20504;-77
2021/06/29 03:58:29;;;;;;;3.70;2.15;;;;;;;16.34;100.00;95681.63;4995763;28;20516;-77
2021/06/29 04:00:55;;;;;;;2.80;2.20;;;;;;;16.30;100.00;95682.84;4995754;28;20426;-77
2021/06/29 04:03:20;;;;;;;3.73;2.13;;;;;;;16.29;100.00;95694.28;5012881;28;20420;-77
2021/06/29 04:05:46;;;;;;;3.87;2.10;;;;;;;16.24;100.00;95686.03;5013321;28;20778;-77
2021/06/29 04:08:11;;;;;;;4.13;2.40;;;;;;;16.29;100.00;95667.31;5013089;28;20501;-77
2021/06/29 04:10:38;;;;;;;4.15;2.25;;;;;;;16.21;100.00;95663.59;5014145;28;20416;-77
2021/06/29 04:13:03;;;;;;;5.47;1.98;;;;;;;16.33;100.00;95677.38;5013815;28;20960;-77
2021/06/29 04:15:29;;;;;;;5.60;2.00;;;;;;;16.44;100.00;95671.22;4996793;28;20429;-79
2021/06/29 04:17:54;;;;;;;2.70;1.90;;;;;;;16.55;100.00;95668.47;5015557;28;20482;-78
2021/06/29 04:20:20;;;;;;;3.80;2.63;;;;;;;16.46;100.00;95653.59;4996611;28;20436;-77
2021/06/29 04:22:45;;;;;;;3.30;2.30;;;;;;;16.41;100.00;95671.47;5012494;28;20425;-77
2021/06/29 04:25:11;;;;;;;3.13;2.63;;;;;;;16.41;100.00;95653.16;5011831;28;20455;-76
2021/06/29 04:27:38;;;;;;;3.78;2.80;;;;;;;16.33;100.00;95647.78;4994266;28;20452;-77
2021/06/29 04:30:06;;;;;;;4.35;2.78;;;;;;;16.35;100.00;95625.81;4994343;28;20421;-77
2021/06/29 04:32:32;;;;;;;5.45;2.70;;;;;;;16.47;100.00;95625.69;4994161;28;20919;-76
2021/06/29 04:34:57;;;;;;;3.57;2.57;;;;;;;16.59;100.00;95635.88;5011719;28;20442;-77
2021/06/29 04:37:23;;;;;;;3.95;2.70;;;;;;;16.62;100.00;95622.53;4993787;28;20421;-77
2021/06/29 04:39:48;;;;;;;2.40;2.20;;;;;;;16.96;100.00;95623.94;4994028;28;20456;-77
2021/06/29 04:42:14;;;;;;;4.70;2.90;;;;;;;16.80;100.00;95622.69;5011741;28;20787;-77
2021/06/29 04:44:41;;;;;;;2.37;2.13;;;;;;;16.68;100.00;95624.56;5011632;28;20423;-77
2021/06/29 04:47:07;;;;;;;4.00;2.35;;;;;;;16.39;100.00;95623.75;5011171;28;20907;-77
2021/06/29 04:49:33;;;;;;;3.88;2.10;;;;;;;16.58;100.00;95633.41;5011498;28;20495;-77
2021/06/29 04:51:58;;;;;;;2.77;2.13;;;;;;;16.53;100.00;95653.88;5011294;28;20985;-77
2021/06/29 04:54:24;;;;;;;2.97;2.63;;;;;;;16.49;100.00;95645.47;5011269;28;20416;-76
2021/06/29 04:56:50;;;;;;;6.72;2.90;;;;;;;16.52;100.00;95647.81;5010954;28;20443;-77
2021/06/29 04:59:16;;;;;;;3.88;2.72;;;;;;;16.58;100.00;95628.16;5011264;28;20416;-77
2021/06/29 05:01:43;;;;;;;3.83;3.13;;;;;;;16.69;100.00;95631.47;4993462;28;20421;-77
2021/06/29 05:04:08;;;;;;;3.57;3.10;;;;;;;16.66;100.00;95626.50;5011196;28;20508;-77
2021/06/29 05:06:34;;;;;;;3.53;2.80;;;;;;;16.96;100.00;95622.13;5010971;28;20504;-76
2021/06/29 05:08:59;;;;;;;4.80;2.93;;;;;;;16.99;100.00;95614.00;5011234;28;20432;-77
2021/06/29 05:11:25;;;;;;;3.70;2.30;;;;;;;16.77;100.00;95628.19;4993586;28;20926;-77
2021/06/29 05:13:50;;;;;;;3.40;2.20;;;;;;;16.76;100.00;95626.56;4993313;28;20502;-77
2021/06/29 05:16:15;;;;;;;2.80;2.57;;;;;;;16.98;100.00;95620.19;5010636;28;20440;-76
2021/06/29 05:18:42;;;;;;;2.63;2.43;;;;;;;16.91;100.00;95619.94;5011009;28;20477;-77
2021/06/29 05:21:08;;;;;;;2.53;2.33;;;;;;;16.78;100.00;95608.09;5010949;28;20463;-76
2021/06/29 05:23:33;;;;;;;5.00;2.75;;;;;;;16.88;100.00;95624.63;5010747;28;20412;-76
2021/06/29 05:25:59;;;;;;;4.57;3.23;;;;;;;16.98;100.00;95624.59;5010613;28;20463;-76
2021/06/29 05:28:25;;;;;;;5.10;2.80;;;;;;;17.08;100.00;95622.81;5010878;28;20903;-76
2021/06/29 05:30:50;;;;;;;3.10;2.80;;;;;;;16.97;100.00;95623.78;4996179;28;20428;-76
2021/06/29 05:33:16;;;;;;;4.20;3.00;;;;;;;16.99;100.00;95621.03;5017395;28;20443;-76
2021/06/29 05:35:43;;;;;;;3.53;2.80;;;;;;;16.84;100.00;95628.47;5017082;28;20439;-76
2021/06/29 05:38:09;;;;;;;3.03;2.67;;;;;;;16.74;100.00;95627.66;4999839;28;20417;-76
2021/06/29 05:40:34;;;;;;;3.40;2.60;;;;;;;16.81;100.00;95631.38;5017296;28;20783;-76
2021/06/29 05:43:00;;;;;;;4.07;2.70;;;;;;;16.81;100.00;95629.56;4999674;28;20520;-76
2021/06/29 05:45:25;;;;;;;4.10;3.00;;;;;;;16.84;100.00;95636.34;5017061;28;20866;-76
2021/06/29 05:47:51;;;;;;;6.97;3.50;;;;;;;16.83;100.00;95638.09;5017541;28;20422;-76
2021/06/29 05:50:17;;;;;;;6.47;3.47;;;;;;;16.83;100.00;95638.09;5017188;28;20416;-76
2021/06/29 05:52:45;;;;;;;3.97;3.40;;;;;;;16.91;100.00;95632.19;4999605;28;20434;-76
2021/06/29 05:55:12;;;;;;;4.57;2.53;;;;;;;16.92;100.00;95628.63;5016857;28;20478;-76
2021/06/29 05:57:38;;;;;;;4.43;2.85;;;;;;;16.91;100.00;95632.19;4999882;28;20470;-76
2021/06/29 06:00:06;;;;;;;3.75;2.80;;;;;;;16.84;100.00;95626.69;5002345;28;20475;-76
2021/06/29 06:02:32;;;;;;;4.60;2.80;;;;;;;16.92;100.00;95621.59;5001975;28;20439;-77
2021/06/29 06:04:57;;;;;;;3.10;2.17;;;;;;;16.96;100.00;95621.31;5000262;28;20515;-77
2021/06/29 06:07:23;;;;;;;3.27;2.27;;;;;;;17.04;100.00;95617.03;5013109;28;20900;-78
2021/06/29 06:09:49;;;;;;;4.97;2.17;;;;;;;17.11;100.00;95620.75;5001022;28;20414;-77
2021/06/29 06:12:15;;;;;;;5.78;2.40;;;;;;;17.14;100.00;95623.09;5020958;28;20436;-79
2021/06/29 06:14:40;;;;;;;2.60;2.10;;;;;;;17.20;100.00;95623.47;5004024;28;20520;-77
2021/06/29 06:17:06;;;;;;;3.63;2.00;;;;;;;17.10;100.00;95611.25;5004019;28;20775;-80
2021/06/29 06:19:31;;;;;;;2.70;2.00;;;;;;;17.20;100.00;95605.97;5003067;28;20412;-78
2021/06/29 06:21:57;;;;;;;2.85;2.10;;;;;;;17.20;100.00;95598.13;5003480;28;20842;-80
2021/06/29 06:24:22;;;;;;;4.87;2.00;;;;;;;17.27;100.00;95603.63;5002351;28;20428;-77
2021/06/29 06:26:49;;;;;;;3.40;2.40;;;;;;;17.26;100.00;95597.56;5000034;28;20419;-74
2021/06/29 06:29:14;;;;;;;3.53;2.20;;;;;;;17.20;100.00;95599.91;5018882;28;20829;-79
2021/06/29 06:31:40;;;;;;;2.70;2.10;;;;;;;17.29;100.00;95593.84;5019926;28;20452;-79
2021/06/29 06:34:05;;;;;;;2.97;2.30;;;;;;;17.28;100.00;95597.41;5001727;28;20427;-79
2021/06/29 06:36:31;;;;;;;2.70;2.20;;;;;;;17.29;100.00;95602.53;5001138;28;20842;-78
2021/06/29 06:38:56;;;;;;;3.17;2.37;;;;;;;17.35;100.00;95611.59;4984799;28;20433;-79
2021/06/29 06:41:22;;;;;;;3.10;2.20;;;;;;;17.49;100.00;95603.28;4981631;28;20411;-78
2021/06/29 06:43:49;;;;;;;7.60;2.53;;;;;;;17.52;100.00;95602.19;4994877;28;20441;-78
2021/06/29 06:46:15;;;;;;;3.17;2.30;;;;;;;17.79;100.00;95601.41;4995642;28;20476;-71
2021/06/29 06:48:42;;;;;;;7.73;2.33;;;;;;;17.97;100.00;95597.06;4995049;28;20518;-77
2021/06/29 06:51:08;;;;;;;2.45;2.25;;;;;;;18.33;100.00;95594.50;4994656;28;20804;-77
2021/06/29 06:53:34;;;;;;;2.10;1.90;;;;;;;18.55;100.00;95594.06;4995346;28;20469;-76
2021/06/29 06:55:59;;;;;;;4.97;1.90;;;;;;;18.73;100.00;95599.34;4994786;28;20430;-77
2021/06/29 06:58:25;;;;;;;4.77;2.17;;;;;;;18.79;100.00;95590.03;4995776;28;20426;-77
2021/06/29 07:00:52;;;;;;;12.02;2.42;;;;;;;19.10;98.31;95586.03;4996921;28;20422;-78
2021/06/29 07:03:18;;;;;;;3.00;1.90;;;;;;;18.98;96.38;95578.56;4978438;28;20441;-77
2021/06/29 07:05:43;;;;;;;3.13;1.90;;;;;;;19.16;95.94;95583.78;4976891;28;20529;-77
2021/06/29 07:08:09;;;;;;;5.72;1.83;;;;;;;19.46;94.66;95580.69;4993986;28;20901;-77
2021/06/29 07:10:34;;;;;;;2.30;1.90;;;;;;;19.66;94.66;95575.25;4994286;28;20411;-77
2021/06/29 07:13:00;;;;;;;2.60;1.75;;;;;;;19.64;93.71;95572.75;4994165;28;20414;-77
2021/06/29 07:15:28;;;;;;;4.47;1.88;;;;;;;19.84;92.87;95570.72;4976232;28;20429;-77
2021/06/29 07:17:55;;;;;;;2.55;1.67;;;;;;;19.96;87.52;95574.72;4996153;28;20757;-78
2021/06/29 07:20:21;;;;;;;3.38;1.98;;;;;;;19.99;87.33;95574.41;4996196;28;20417;-78
2021/06/29 07:22:46;;;;;;;2.97;1.27;;;;;;;20.40;87.34;95573.69;4996313;28;20414;-77
2021/06/29 07:25:12;;;;;;;2.27;1.70;;;;;;;20.83;90.29;95580.50;4993044;28;20426;-73
2021/06/29 07:27:38;;;;;;;2.15;1.60;;;;;;;20.72;83.66;95576.38;4993196;28;20421;-77
2021/06/29 07:30:04;;;;;;;2.17;1.48;;;;;;;20.23;85.94;95575.44;4993380;28;20434;-77
2021/06/29 07:32:29;;;;;;;1.65;1.42;;;;;;;20.30;86.52;95571.19;4993410;28;20450;-76
2021/06/29 07:34:56;;;;;;;1.95;1.30;;;;;;;20.20;85.21;95568.69;4975891;28;20463;-77
2021/06/29 07:37:22;;;;;;;3.20;1.58;;;;;;;20.82;91.92;95560.44;4996843;28;20516;-77
2021/06/29 07:39:48;;;;;;;2.22;1.50;;;;;;;21.47;84.45;95568.31;4996600;28;20498;-78
2021/06/29 07:42:13;;;;;;;2.88;1.55;;;;;;;21.54;81.45;95572.88;5014286;28;20907;-77
2021/06/29 07:44:38;;;;;;;2.57;1.53;;;;;;;20.93;78.93;95568.00;5014441;28;20512;-77
2021/06/29 07:47:04;;;;;;;5.28;1.30;;;;;;;21.18;80.66;95565.34;4996173;28;20417;-77
2021/06/29 07:49:29;;;;;;;1.80;1.23;;;;;;;20.98;79.08;95556.97;5012922;28;21012;-77
2021/06/29 07:51:57;;;;;;;2.53;1.20;;;;;;;21.51;80.47;95550.34;5012870;28;20487;-77
2021/06/29 07:54:22;;;;;;;1.23;1.13;;;;;;;21.69;73.23;95550.94;4995108;28;20429;-77
2021/06/29 07:56:48;;;;;;;1.43;1.17;;;;;;;22.11;73.58;95547.13;5013394;28;20435;-78
2021/06/29 07:59:13;;;;;;;1.77;1.02;;;;;;;22.36;74.93;95547.00;4997018;28;20452;-78
2021/06/29 08:01:38;;;;;;;2.23;1.10;;;;;;;22.33;73.11;95542.09;4996846;28;20420;-78
2021/06/29 08:04:04;;;;;;;3.90;1.30;;;;;;;21.62;74.28;95549.16;5013823;28;20420;-77
2021/06/29 08:06:30;;;;;;;1.67;1.15;;;;;;;21.77;72.44;95543.97;5012772;28;20798;-77
2021/06/29 08:08:57;;;;;;;2.70;1.10;;;;;;;21.60;72.14;95545.84;4995079;28;20428;-77
2021/06/29 08:11:22;;;;;;;1.53;1.40;;;;;;;21.83;74.13;95540.66;5012468;28;20511;-77
2021/06/29 08:13:48;;;;;;;1.10;1.00;;;;;;;22.27;73.07;95527.78;5013078;28;20440;-77
2021/06/29 08:16:13;;;;;;;2.80;1.25;;;;;;;22.67;68.92;95537.22;5012831;28;20781;-76
2021/06/29 08:18:39;;;;;;;2.00;1.23;;;;;;;22.50;66.35;95542.78;5013079;28;20412;-77
2021/06/29 08:21:06;;;;;;;1.77;0.87;;;;;;;22.44;66.89;95534.59;5013256;28;20482;-77
2021/06/29 08:23:32;;;;;;;1.67;0.80;;;;;;;22.32;63.73;95528.09;5009130;23;20538;-74
2021/06/29 08:25:59;;;;;;;1.52;0.90;;;;;;;22.56;63.80;95529.72;5030008;28;20419;-74
2021/06/29 08:28:25;;;;;;;2.25;0.85;;;;;;;22.51;63.23;95534.72;5013804;28;20407;-74
2021/06/29 08:30:51;;;;;;;1.50;0.90;;;;;;;22.71;65.26;95545.63;5031466;28;20431;-74
2021/06/29 08:33:20;;;;;;;1.77;1.10;;;;;;;22.27;65.59;95521.69;5012363;28;20503;-74
2021/06/29 08:35:47;;;;;;;4.82;1.17;;;;;;;22.94;69.48;95521.84;4991738;28;20908;-75
2021/06/29 08:38:13;;;;;;;1.55;1.13;;;;;;;22.91;67.12;95527.47;4991585;28;20411;-74
2021/06/29 08:40:39;;;;;;;1.40;0.70;;;;;;;23.12;67.81;95527.63;4991923;28;20484;-74
2021/06/29 08:43:07;;;;;;;1.73;1.00;;;;;;;23.50;63.29;95518.81;4991982;28;20418;-74
2021/06/29 08:45:33;;;;;;;1.02;0.90;;;;;;;23.12;62.35;95516.25;4991490;28;20509;-75
2021/06/29 08:47:59;;;;;;;1.10;0.80;;;;;;;23.32;62.03;95519.16;4991866;28;20497;-75
2021/06/29 08:50:30;;;;;;;1.40;1.00;;;;;;;23.54;62.12;95504.22;4974260;28;20810;-74
2021/06/29 08:52:56;;;;;;;1.40;1.05;;;;;;;23.56;60.15;95507.53;4991720;28;20474;-75
2021/06/29 08:55:26;;;;;;;1.70;0.90;;;;;;;22.75;63.41;95509.94;4991304;28;20889;-74
2021/06/29 08:57:52;;;;;;;1.63;1.00;;;;;;;22.23;65.17;95510.66;4991772;28;20462;-74
2021/06/29 09:00:19;;;;;;;1.97;1.13;;;;;;;21.53;67.69;95503.53;4991668;28;20457;-75
2021/06/29 09:02:45;;;;;;;1.15;0.95;;;;;;;21.81;67.40;95500.47;4974254;28;20517;-75
2021/06/29 09:05:22;;;;;;;1.92;1.08;;;;;;;21.79;67.48;95508.53;4990687;28;20514;-74
2021/06/29 09:07:58;;;;;;;4.10;1.00;;;;;;;22.05;65.95;95495.06;4980860;28;20995;-74
2021/06/29 09:10:24;;;;;;;2.63;1.30;;;;;;;22.06;67.56;95491.41;5011220;28;20417;-75
2021/06/29 09:12:50;;;;;;;1.93;1.10;;;;;;;22.17;67.97;95480.53;4993528;28;21017;-75
2021/06/29 09:15:35;;;;;;;2.42;1.00;;;;;;;23.15;64.19;95482.38;5010774;28;20506;-74
2021/06/29 09:18:13;;;;;;;2.45;1.10;;;;;;;23.64;64.14;95478.34;5010751;28;20910;-76
2021/06/29 09:20:41;;;;;;;1.33;0.90;;;;;;;23.39;59.68;95475.97;5010946;28;20416;-75
2021/06/29 09:23:09;;;;;;;3.08;1.25;;;;;;;24.04;61.84;95479.66;5010894;28;20431;-75
2021/06/29 09:25:35;;;;;;;1.00;0.90;;;;;;;23.97;61.23;95478.78;5008913;28;20427;-75
2021/06/29 09:28:00;;;;;;;1.30;0.73;;;;;;;24.44;61.64;95482.75;5010612;28;20790;-75
2021/06/29 09:30:37;;;;;;;1.48;1.10;;;;;;;23.97;59.57;95489.34;4993021;28;20420;-75
2021/06/29 09:33:05;;;;;;;1.20;0.90;;;;;;;23.90;59.19;95489.28;4993192;28;20507;-76
2021/06/29 09:35:31;;;;;;;1.40;0.85;;;;;;;23.62;59.63;95483.81;4993002;28;20515;-76
2021/06/29 09:37:57;;;;;;;1.90;0.80;;;;;;;23.58;59.59;95479.91;4983787;28;21019;-76
2021/06/29 09:40:26;;;;;;;1.30;0.80;;;;;;;23.99;57.59;95468.00;4991157;28;20417;-76
2021/06/29 09:42:52;;;;;;;1.90;0.80;;;;;;;24.46;57.41;95467.50;4976251;28;20487;-76
2021/06/29 09:45:38;;;;;;;2.10;0.90;;;;;;;24.95;56.37;95469.31;4992805;28;20520;-76
2021/06/29 09:48:08;;;;;;;2.08;1.15;;;;;;;25.13;54.50;95462.75;5010523;28;20432;-76
2021/06/29 09:50:41;;;;;;;2.28;1.05;;;;;;;24.66;57.40;95462.41;4992905;28;20468;-76
2021/06/29 09:53:14;;;;;;;1.45;1.08;;;;;;;23.93;58.17;95450.25;5010608;28;20902;-76
2021/06/29 09:55:40;;;;;;;2.40;1.10;;;;;;;23.53;59.18;95449.75;5010156;28;20437;-76
2021/06/29 09:58:09;;;;;;;2.00;1.27;;;;;;;23.55;60.04;95443.28;5010671;28;20439;-75
2021/06/29 10:00:48;;;;;;;2.25;1.20;;;;;;;23.89;57.61;95447.16;4992730;28;20447;-75
2021/06/29 10:03:30;;;;;;;1.92;0.93;;;;;;;23.38;59.83;95439.19;5010563;28;20425;-76
2021/06/29 10:05:58;;;;;;;2.10;1.30;;;;;;;23.38;62.00;95434.72;5010366;28;20902;-75
2021/06/29 10:08:25;;;;;;;1.10;0.80;;;;;;;24.04;58.21;95434.69;5010466;28;20420;-76
2021/06/29 10:11:09;;;;;;;1.87;1.23;;;;;;;23.74;57.47;95425.22;5010508;28;20501;-75
2021/06/29 10:13:37;;;;;;;1.80;1.10;;;;;;;24.07;56.35;95426.38;4992962;28;20761;-75
2021/06/29 10:16:05;;;;;;;1.27;0.90;;;;;;;22.91;60.75;95421.81;5010045;28;20512;-76
2021/06/29 10:18:34;;;;;;;1.88;1.05;;;;;;;23.47;61.78;95419.56;5012810;28;20424;-75
2021/06/29 10:21:03;;;;;;;1.30;1.10;;;;;;;24.07;58.12;95422.94;5014222;28;20503;-76
2021/06/29 10:23:30;;;;;;;1.27;1.00;;;;;;;23.89;58.65;95416.22;4996348;28;20452;-76
2021/06/29 10:25:56;;;;;;;3.60;1.13;;;;;;;24.42;59.52;95408.00;5013902;28;20889;-75
2021/06/29 10:28:22;;;;;;;1.83;1.23;;;;;;;24.35;56.00;95410.56;5014092;28;20413;-75
2021/06/29 10:30:48;;;;;;;1.85;1.23;;;;;;;24.99;55.51;95406.16;5013904;28;20417;-75
2021/06/29 10:33:17;;;;;;;1.83;1.13;;;;;;;24.82;54.77;95414.44;5014287;28;20943;-75
2021/06/29 10:35:43;;;;;;;2.03;1.17;;;;;;;24.21;55.54;95407.97;4996127;28;20475;-75
2021/06/29 10:38:10;;;;;;;1.00;0.80;;;;;;;23.45;58.00;95402.28;5003468;28;20465;-75
2021/06/29 10:40:36;;;;;;;1.02;0.80;;;;;;;23.40;59.09;95397.53;4994221;28;20493;-75
2021/06/29 10:43:02;;;;;;;1.13;1.02;;;;;;;23.56;58.15;95401.78;4994053;28;20430;-75
2021/06/29 10:45:34;;;;;;;2.05;1.23;;;;;;;24.32;60.43;95413.56;4993685;28;20815;-75
2021/06/29 10:48:18;;;;;;;1.55;0.90;;;;;;;23.54;56.62;95409.06;4976603;28;20432;-75
2021/06/29 10:50:45;;;;;;;1.98;1.15;;;;;;;23.01;58.24;95418.97;4993721;28;20415;-75
2021/06/29 10:53:36;;;;;;;1.48;1.00;;;;;;;23.71;59.48;95410.53;4994162;28;20442;-75
2021/06/29 10:56:05;;;;;;;1.38;0.98;;;;;;;23.76;57.33;95413.44;4975892;28;20912;-75
2021/06/29 10:58:36;;;;;;;3.03;1.20;;;;;;;23.84;60.39;95409.84;4976334;28;20509;-75
2021/06/29 11:01:24;;;;;;;1.20;0.90;;;;;;;24.30;57.40;95407.69;4976244;28;20429;-75
2021/06/29 11:03:54;;;;;;;1.38;1.02;;;;;;;23.83;56.85;95410.88;4994117;28;20449;-76
2021/06/29 11:06:34;;;;;;;1.90;0.80;;;;;;;24.30;55.47;95401.56;4976254;28;20445;-76
2021/06/29 11:09:00;;;;;;;1.60;0.82;;;;;;;24.04;54.67;95395.00;5010968;28;20487;-76
2021/06/29 11:11:26;;;;;;;1.63;0.90;;;;;;;24.07;55.40;95391.19;4995966;28;20463;-74
2021/06/29 11:13:52;;;;;;;1.65;0.95;;;;;;;23.90;56.74;95391.41;5013347;28;20409;-75
2021/06/29 11:16:18;;;;;;;1.52;1.00;;;;;;;24.62;57.23;95406.34;4995312;28;20494;-75
2021/06/29 11:18:51;;;;;;;3.10;1.25;;;;;;;23.54;56.11;95395.84;5002627;28;20414;-75
2021/06/29 11:21:36;;;;;;;1.13;0.90;;;;;;;23.31;57.05;95398.63;4993671;28;20422;-75
2021/06/29 11:24:33;;;;;;;1.48;0.85;;;;;;;23.60;57.03;95392.47;4976121;28;20430;-74
2021/06/29 11:26:59;;;;;;;1.88;1.10;;;;;;;23.54;56.25;95390.56;4979685;28;20515;-75
2021/06/29 11:29:37;;;;;;;1.58;0.90;;;;;;;23.66;56.58;95386.47;4993207;28;20415;-75
2021/06/29 11:32:24;;;;;;;2.08;0.95;;;;;;;23.83;55.86;95387.06;4993363;28;20438;-76